sensor_id;sensor_type;location;lat;lon;timestamp;temperature;humidity
24152;DHT22;12311;50.866;4.332;2024-02-26T00:02:23;7.60;99.90
24152;DHT22;12311;50.866;4.332;2024-02-26T00:04:48;7.60;99.90
24152;DHT22;12311;50.866;4.332;2024-02-26T00:07:15;7.50;99.90
24152;DHT22;12311;50.866;4.332;2024-02-26T00:09:41;7.50;99.90
24152;DHT22;12311;50.866;4.332;2024-02-26T00:12:07;7.60;99.90
24152;DHT22;12311;50.866;4.332;2024-02-26T00:14:32;7.60;99.90
24152;DHT22;12311;50.866;4.332;2024-02-26T00:16:58;7.60;99.90
24152;DHT22;12311;50.866;4.332;2024-02-26T00:19:24;7.60;99.90
24152;DHT22;12311;50.866;4.332;2024-02-26T00:21:49;7.60;99.90
24152;DHT22;12311;50.866;4.332;2024-02-26T00:24:15;7.50;99.90
24152;DHT22;12311;50.866;4.332;2024-02-26T00:26:41;7.50;99.90
24152;DHT22;12311;50.866;4.332;2024-02-26T00:29:07;7.40;99.90
24152;DHT22;12311;50.866;4.332;2024-02-26T00:31:32;7.40;99.90
24152;DHT22;12311;50.866;4.332;2024-02-26T00:33:58;7.50;99.90
24152;DHT22;12311;50.866;4.332;2024-02-26T00:36:24;7.40;99.90
24152;DHT22;12311;50.866;4.332;2024-02-26T00:38:50;7.40;99.90
24152;DHT22;12311;50.866;4.332;2024-02-26T00:41:20;7.40;99.90
24152;DHT22;12311;50.866;4.332;2024-02-26T00:43:46;7.40;99.90
24152;DHT22;12311;50.866;4.332;2024-02-26T00:46:12;7.50;99.90
24152;DHT22;12311;50.866;4.332;2024-02-26T00:48:38;7.50;99.90
24152;DHT22;12311;50.866;4.332;2024-02-26T00:51:05;7.40;99.90
24152;DHT22;12311;50.866;4.332;2024-02-26T00:53:31;7.40;99.90
24152;DHT22;12311;50.866;4.332;2024-02-26T00:55:57;7.30;99.90
24152;DHT22;12311;50.866;4.332;2024-02-26T00:58:27;7.30;99.90
24152;DHT22;12311;50.866;4.332;2024-02-26T01:00:52;7.20;99.90
24152;DHT22;12311;50.866;4.332;2024-02-26T01:03:18;7.20;99.90
24152;DHT22;12311;50.866;4.332;2024-02-26T01:05:44;7.20;99.90
24152;DHT22;12311;50.866;4.332;2024-02-26T01:08:10;7.20;99.90
24152;DHT22;12311;50.866;4.332;2024-02-26T01:10:36;7.10;99.90
24152;DHT22;12311;50.866;4.332;2024-02-26T01:13:02;7.20;99.90
24152;DHT22;12311;50.866;4.332;2024-02-26T01:15:27;7.20;99.90
24152;DHT22;12311;50.866;4.332;2024-02-26T01:17:53;7.20;99.90
24152;DHT22;12311;50.866;4.332;2024-02-26T01:20:19;7.20;99.90
24152;DHT22;12311;50.866;4.332;2024-02-26T01:22:45;7.20;99.90
24152;DHT22;12311;50.866;4.332;2024-02-26T01:25:12;7.10;99.90
24152;DHT22;12311;50.866;4.332;2024-02-26T01:27:38;7.20;99.90
24152;DHT22;12311;50.866;4.332;2024-02-26T01:30:05;7.10;99.90
24152;DHT22;12311;50.866;4.332;2024-02-26T01:32:31;7.10;99.90
24152;DHT22;12311;50.866;4.332;2024-02-26T01:34:57;7.20;99.90
24152;DHT22;12311;50.866;4.332;2024-02-26T01:37:23;7.30;99.90
24152;DHT22;12311;50.866;4.332;2024-02-26T01:39:49;7.20;99.90
24152;DHT22;12311;50.866;4.332;2024-02-26T01:42:14;7.20;99.90
24152;DHT22;12311;50.866;4.332;2024-02-26T01:44:40;7.20;99.90
24152;DHT22;12311;50.866;4.332;2024-02-26T01:47:07;7.10;99.90
24152;DHT22;12311;50.866;4.332;2024-02-26T01:49:36;7.10;99.90
24152;DHT22;12311;50.866;4.332;2024-02-26T01:52:03;7.10;99.90
24152;DHT22;12311;50.866;4.332;2024-02-26T01:54:30;7.10;99.90
24152;DHT22;12311;50.866;4.332;2024-02-26T01:56:56;7.10;99.90
24152;DHT22;12311;50.866;4.332;2024-02-26T01:59:23;7.10;99.90
24152;DHT22;12311;50.866;4.332;2024-02-26T02:01:54;7.10;99.90
24152;DHT22;12311;50.866;4.332;2024-02-26T02:04:20;7.10;99.90
24152;DHT22;12311;50.866;4.332;2024-02-26T02:06:47;7.10;99.90
24152;DHT22;12311;50.866;4.332;2024-02-26T02:09:13;7.10;99.90
24152;DHT22;12311;50.866;4.332;2024-02-26T02:11:39;7.10;99.90
24152;DHT22;12311;50.866;4.332;2024-02-26T02:14:05;7.10;99.90
24152;DHT22;12311;50.866;4.332;2024-02-26T02:16:31;7.00;99.90
24152;DHT22;12311;50.866;4.332;2024-02-26T02:18:58;7.00;99.90
24152;DHT22;12311;50.866;4.332;2024-02-26T02:21:24;7.00;99.90
24152;DHT22;12311;50.866;4.332;2024-02-26T02:23:49;7.10;99.90
24152;DHT22;12311;50.866;4.332;2024-02-26T02:26:15;7.00;99.90
24152;DHT22;12311;50.866;4.332;2024-02-26T02:28:41;7.10;99.90
24152;DHT22;12311;50.866;4.332;2024-02-26T02:31:07;7.10;99.90
24152;DHT22;12311;50.866;4.332;2024-02-26T02:33:34;7.00;99.90
24152;DHT22;12311;50.866;4.332;2024-02-26T02:36:00;7.00;99.90
24152;DHT22;12311;50.866;4.332;2024-02-26T02:38:26;7.00;99.90
24152;DHT22;12311;50.866;4.332;2024-02-26T02:40:52;6.90;99.90
24152;DHT22;12311;50.866;4.332;2024-02-26T02:43:18;6.90;99.90
24152;DHT22;12311;50.866;4.332;2024-02-26T02:45:44;6.90;99.90
24152;DHT22;12311;50.866;4.332;2024-02-26T02:48:11;7.00;99.90
24152;DHT22;12311;50.866;4.332;2024-02-26T02:50:37;7.00;99.90
24152;DHT22;12311;50.866;4.332;2024-02-26T02:53:02;7.00;99.90
24152;DHT22;12311;50.866;4.332;2024-02-26T02:55:28;7.00;99.90
24152;DHT22;12311;50.866;4.332;2024-02-26T02:57:54;7.00;99.90
24152;DHT22;12311;50.866;4.332;2024-02-26T03:00:20;7.00;99.90
24152;DHT22;12311;50.866;4.332;2024-02-26T03:02:45;7.00;99.90
24152;DHT22;12311;50.866;4.332;2024-02-26T03:05:12;7.00;99.90
24152;DHT22;12311;50.866;4.332;2024-02-26T03:07:37;7.00;99.90
24152;DHT22;12311;50.866;4.332;2024-02-26T03:10:03;7.00;99.90
24152;DHT22;12311;50.866;4.332;2024-02-26T03:12:30;6.90;99.90
24152;DHT22;12311;50.866;4.332;2024-02-26T03:14:55;6.90;99.90
24152;DHT22;12311;50.866;4.332;2024-02-26T03:17:21;6.90;99.90
24152;DHT22;12311;50.866;4.332;2024-02-26T03:19:49;6.90;99.90
24152;DHT22;12311;50.866;4.332;2024-02-26T03:22:18;6.90;99.90
24152;DHT22;12311;50.866;4.332;2024-02-26T03:24:44;7.00;99.90
24152;DHT22;12311;50.866;4.332;2024-02-26T03:27:10;6.90;99.90
24152;DHT22;12311;50.866;4.332;2024-02-26T03:29:37;6.90;99.90
24152;DHT22;12311;50.866;4.332;2024-02-26T03:32:03;6.90;99.90
24152;DHT22;12311;50.866;4.332;2024-02-26T03:34:29;6.90;99.90
24152;DHT22;12311;50.866;4.332;2024-02-26T03:36:56;7.00;99.90
24152;DHT22;12311;50.866;4.332;2024-02-26T03:39:22;7.00;99.90
24152;DHT22;12311;50.866;4.332;2024-02-26T03:41:48;6.90;99.90
24152;DHT22;12311;50.866;4.332;2024-02-26T03:44:14;6.80;99.90
24152;DHT22;12311;50.866;4.332;2024-02-26T03:46:40;6.90;99.90
24152;DHT22;12311;50.866;4.332;2024-02-26T03:49:08;6.90;99.90
24152;DHT22;12311;50.866;4.332;2024-02-26T03:51:34;6.80;99.90
24152;DHT22;12311;50.866;4.332;2024-02-26T03:54:00;6.80;99.90
24152;DHT22;12311;50.866;4.332;2024-02-26T03:56:26;6.80;99.90
24152;DHT22;12311;50.866;4.332;2024-02-26T03:58:52;6.80;99.90
24152;DHT22;12311;50.866;4.332;2024-02-26T04:01:18;6.90;99.90
24152;DHT22;12311;50.866;4.332;2024-02-26T04:03:44;6.90;99.90
24152;DHT22;12311;50.866;4.332;2024-02-26T04:06:10;7.00;99.90
24152;DHT22;12311;50.866;4.332;2024-02-26T04:08:36;6.90;99.90
24152;DHT22;12311;50.866;4.332;2024-02-26T04:11:02;6.80;99.90
24152;DHT22;12311;50.866;4.332;2024-02-26T04:13:33;6.80;99.90
24152;DHT22;12311;50.866;4.332;2024-02-26T04:15:59;6.80;99.90
24152;DHT22;12311;50.866;4.332;2024-02-26T04:18:26;6.80;99.90
24152;DHT22;12311;50.866;4.332;2024-02-26T04:20:52;6.90;99.90
24152;DHT22;12311;50.866;4.332;2024-02-26T04:23:18;6.90;99.90
24152;DHT22;12311;50.866;4.332;2024-02-26T04:25:44;6.90;99.90
24152;DHT22;12311;50.866;4.332;2024-02-26T04:28:10;7.00;99.90
24152;DHT22;12311;50.866;4.332;2024-02-26T04:30:36;6.90;99.90
24152;DHT22;12311;50.866;4.332;2024-02-26T04:33:02;6.90;99.90
24152;DHT22;12311;50.866;4.332;2024-02-26T04:35:27;6.80;99.90
24152;DHT22;12311;50.866;4.332;2024-02-26T04:37:53;6.70;99.90
24152;DHT22;12311;50.866;4.332;2024-02-26T04:40:19;6.80;99.90
24152;DHT22;12311;50.866;4.332;2024-02-26T04:42:44;6.70;99.90
24152;DHT22;12311;50.866;4.332;2024-02-26T04:45:10;6.70;99.90
24152;DHT22;12311;50.866;4.332;2024-02-26T04:47:36;6.70;99.90
24152;DHT22;12311;50.866;4.332;2024-02-26T04:50:01;6.60;99.90
24152;DHT22;12311;50.866;4.332;2024-02-26T04:52:28;6.60;99.90
24152;DHT22;12311;50.866;4.332;2024-02-26T04:54:53;6.60;99.90
24152;DHT22;12311;50.866;4.332;2024-02-26T04:57:20;6.60;99.90
24152;DHT22;12311;50.866;4.332;2024-02-26T04:59:46;6.60;99.90
24152;DHT22;12311;50.866;4.332;2024-02-26T05:02:12;6.60;99.90
24152;DHT22;12311;50.866;4.332;2024-02-26T05:04:38;6.70;99.90
24152;DHT22;12311;50.866;4.332;2024-02-26T05:07:04;6.60;99.90
24152;DHT22;12311;50.866;4.332;2024-02-26T05:09:29;6.60;99.90
24152;DHT22;12311;50.866;4.332;2024-02-26T05:11:55;6.70;99.90
24152;DHT22;12311;50.866;4.332;2024-02-26T05:14:21;6.70;99.90
24152;DHT22;12311;50.866;4.332;2024-02-26T05:16:47;6.60;99.90
24152;DHT22;12311;50.866;4.332;2024-02-26T05:19:13;6.60;99.90
24152;DHT22;12311;50.866;4.332;2024-02-26T05:21:39;6.60;99.90
24152;DHT22;12311;50.866;4.332;2024-02-26T05:24:06;6.70;99.90
24152;DHT22;12311;50.866;4.332;2024-02-26T05:26:31;6.60;99.90
24152;DHT22;12311;50.866;4.332;2024-02-26T05:28:57;6.60;99.90
24152;DHT22;12311;50.866;4.332;2024-02-26T05:31:26;6.70;99.90
24152;DHT22;12311;50.866;4.332;2024-02-26T05:33:52;6.70;99.90
24152;DHT22;12311;50.866;4.332;2024-02-26T05:36:18;6.70;99.90
24152;DHT22;12311;50.866;4.332;2024-02-26T05:38:45;6.60;99.90
24152;DHT22;12311;50.866;4.332;2024-02-26T05:41:12;6.60;99.90
24152;DHT22;12311;50.866;4.332;2024-02-26T05:43:37;6.60;99.90
24152;DHT22;12311;50.866;4.332;2024-02-26T05:46:03;6.60;99.90
24152;DHT22;12311;50.866;4.332;2024-02-26T05:48:29;6.70;99.90
24152;DHT22;12311;50.866;4.332;2024-02-26T05:50:55;6.70;99.90
24152;DHT22;12311;50.866;4.332;2024-02-26T05:53:20;6.70;99.90
24152;DHT22;12311;50.866;4.332;2024-02-26T05:55:46;6.60;99.90
24152;DHT22;12311;50.866;4.332;2024-02-26T05:58:12;6.60;99.90
24152;DHT22;12311;50.866;4.332;2024-02-26T06:00:37;6.60;99.90
24152;DHT22;12311;50.866;4.332;2024-02-26T06:03:03;6.60;99.90
24152;DHT22;12311;50.866;4.332;2024-02-26T06:05:29;6.70;99.90
24152;DHT22;12311;50.866;4.332;2024-02-26T06:07:54;6.70;99.90
24152;DHT22;12311;50.866;4.332;2024-02-26T06:10:20;6.80;99.90
24152;DHT22;12311;50.866;4.332;2024-02-26T06:12:47;6.70;99.90
24152;DHT22;12311;50.866;4.332;2024-02-26T06:15:13;6.70;99.90
24152;DHT22;12311;50.866;4.332;2024-02-26T06:17:38;6.70;99.90
24152;DHT22;12311;50.866;4.332;2024-02-26T06:20:04;6.60;99.90
24152;DHT22;12311;50.866;4.332;2024-02-26T06:22:31;6.50;99.90
24152;DHT22;12311;50.866;4.332;2024-02-26T06:24:57;6.50;99.90
24152;DHT22;12311;50.866;4.332;2024-02-26T06:27:23;6.60;99.90
24152;DHT22;12311;50.866;4.332;2024-02-26T06:29:49;6.60;99.90
24152;DHT22;12311;50.866;4.332;2024-02-26T06:32:15;6.60;99.90
24152;DHT22;12311;50.866;4.332;2024-02-26T06:34:41;6.60;99.90
24152;DHT22;12311;50.866;4.332;2024-02-26T06:37:08;6.60;99.90
24152;DHT22;12311;50.866;4.332;2024-02-26T06:39:33;6.60;99.90
24152;DHT22;12311;50.866;4.332;2024-02-26T06:41:59;6.70;99.90
24152;DHT22;12311;50.866;4.332;2024-02-26T06:44:28;6.70;99.90
24152;DHT22;12311;50.866;4.332;2024-02-26T06:47:00;6.70;99.90
24152;DHT22;12311;50.866;4.332;2024-02-26T06:49:26;6.60;99.90
24152;DHT22;12311;50.866;4.332;2024-02-26T06:51:52;6.50;99.90
24152;DHT22;12311;50.866;4.332;2024-02-26T06:54:18;6.50;99.90
24152;DHT22;12311;50.866;4.332;2024-02-26T06:56:44;6.50;99.90
24152;DHT22;12311;50.866;4.332;2024-02-26T06:59:10;6.50;99.90
24152;DHT22;12311;50.866;4.332;2024-02-26T07:01:35;6.50;99.90
24152;DHT22;12311;50.866;4.332;2024-02-26T07:04:01;6.50;99.90
24152;DHT22;12311;50.866;4.332;2024-02-26T07:06:27;6.50;99.90
24152;DHT22;12311;50.866;4.332;2024-02-26T07:08:53;6.60;99.90
24152;DHT22;12311;50.866;4.332;2024-02-26T07:11:19;6.50;99.90
24152;DHT22;12311;50.866;4.332;2024-02-26T07:13:46;6.50;99.90
24152;DHT22;12311;50.866;4.332;2024-02-26T07:16:11;6.40;99.90
24152;DHT22;12311;50.866;4.332;2024-02-26T07:18:41;6.40;99.90
24152;DHT22;12311;50.866;4.332;2024-02-26T07:21:08;6.50;99.90
24152;DHT22;12311;50.866;4.332;2024-02-26T07:23:34;6.40;99.90
24152;DHT22;12311;50.866;4.332;2024-02-26T07:26:00;6.40;99.90
24152;DHT22;12311;50.866;4.332;2024-02-26T07:28:26;6.30;99.90
24152;DHT22;12311;50.866;4.332;2024-02-26T07:30:51;6.40;99.90
24152;DHT22;12311;50.866;4.332;2024-02-26T07:33:17;6.40;99.90
24152;DHT22;12311;50.866;4.332;2024-02-26T07:35:43;6.40;99.90
24152;DHT22;12311;50.866;4.332;2024-02-26T07:38:08;6.40;99.90
24152;DHT22;12311;50.866;4.332;2024-02-26T07:40:34;6.40;99.90
24152;DHT22;12311;50.866;4.332;2024-02-26T07:43:00;6.40;99.90
24152;DHT22;12311;50.866;4.332;2024-02-26T07:45:25;6.40;99.90
24152;DHT22;12311;50.866;4.332;2024-02-26T07:47:51;6.40;99.90
24152;DHT22;12311;50.866;4.332;2024-02-26T07:50:18;6.40;99.90
24152;DHT22;12311;50.866;4.332;2024-02-26T07:52:45;6.40;99.90
24152;DHT22;12311;50.866;4.332;2024-02-26T07:55:11;6.50;99.90
24152;DHT22;12311;50.866;4.332;2024-02-26T07:57:36;6.50;99.90
24152;DHT22;12311;50.866;4.332;2024-02-26T08:00:03;6.50;99.90
24152;DHT22;12311;50.866;4.332;2024-02-26T08:02:29;6.40;99.90
24152;DHT22;12311;50.866;4.332;2024-02-26T08:04:55;6.50;99.90
24152;DHT22;12311;50.866;4.332;2024-02-26T08:07:20;6.60;99.90
24152;DHT22;12311;50.866;4.332;2024-02-26T08:09:47;6.50;99.90
24152;DHT22;12311;50.866;4.332;2024-02-26T08:12:13;6.40;99.90
24152;DHT22;12311;50.866;4.332;2024-02-26T08:14:39;6.40;99.90
24152;DHT22;12311;50.866;4.332;2024-02-26T08:17:04;6.40;99.90
24152;DHT22;12311;50.866;4.332;2024-02-26T08:19:30;6.40;99.90
24152;DHT22;12311;50.866;4.332;2024-02-26T08:21:56;6.40;99.90
24152;DHT22;12311;50.866;4.332;2024-02-26T08:24:22;6.40;99.90
24152;DHT22;12311;50.866;4.332;2024-02-26T08:26:48;6.40;99.90
24152;DHT22;12311;50.866;4.332;2024-02-26T08:29:13;6.30;99.90
24152;DHT22;12311;50.866;4.332;2024-02-26T08:31:39;6.40;99.90
24152;DHT22;12311;50.866;4.332;2024-02-26T08:34:05;6.40;99.90
24152;DHT22;12311;50.866;4.332;2024-02-26T08:36:33;6.40;99.90
24152;DHT22;12311;50.866;4.332;2024-02-26T08:38:59;6.40;99.90
24152;DHT22;12311;50.866;4.332;2024-02-26T08:41:24;6.30;99.90
24152;DHT22;12311;50.866;4.332;2024-02-26T08:43:50;6.30;99.90
24152;DHT22;12311;50.866;4.332;2024-02-26T08:46:15;6.40;99.90
24152;DHT22;12311;50.866;4.332;2024-02-26T08:48:41;6.40;99.90
24152;DHT22;12311;50.866;4.332;2024-02-26T08:51:07;6.40;99.90
24152;DHT22;12311;50.866;4.332;2024-02-26T08:53:34;6.40;99.90
24152;DHT22;12311;50.866;4.332;2024-02-26T08:55:59;6.50;99.90
24152;DHT22;12311;50.866;4.332;2024-02-26T08:58:26;6.50;99.90
24152;DHT22;12311;50.866;4.332;2024-02-26T09:00:52;6.50;99.90
24152;DHT22;12311;50.866;4.332;2024-02-26T09:03:18;6.40;99.90
24152;DHT22;12311;50.866;4.332;2024-02-26T09:05:43;6.40;99.90
24152;DHT22;12311;50.866;4.332;2024-02-26T09:08:09;6.40;99.90
24152;DHT22;12311;50.866;4.332;2024-02-26T09:10:35;6.40;99.90
24152;DHT22;12311;50.866;4.332;2024-02-26T09:13:01;6.40;99.90
24152;DHT22;12311;50.866;4.332;2024-02-26T09:15:27;6.40;99.90
24152;DHT22;12311;50.866;4.332;2024-02-26T09:17:53;6.40;99.90
24152;DHT22;12311;50.866;4.332;2024-02-26T09:20:19;6.40;99.90
24152;DHT22;12311;50.866;4.332;2024-02-26T09:22:46;6.40;99.90
24152;DHT22;12311;50.866;4.332;2024-02-26T09:25:12;6.40;99.90
24152;DHT22;12311;50.866;4.332;2024-02-26T09:27:38;6.40;99.90
24152;DHT22;12311;50.866;4.332;2024-02-26T09:30:04;6.40;99.90
24152;DHT22;12311;50.866;4.332;2024-02-26T09:32:30;6.40;99.90
24152;DHT22;12311;50.866;4.332;2024-02-26T09:34:56;6.40;99.90
24152;DHT22;12311;50.866;4.332;2024-02-26T09:37:22;6.40;99.90
24152;DHT22;12311;50.866;4.332;2024-02-26T09:39:48;6.30;99.90
24152;DHT22;12311;50.866;4.332;2024-02-26T09:42:13;6.30;99.90
24152;DHT22;12311;50.866;4.332;2024-02-26T09:44:40;6.30;99.90
24152;DHT22;12311;50.866;4.332;2024-02-26T09:47:10;6.30;99.90
24152;DHT22;12311;50.866;4.332;2024-02-26T09:49:37;6.30;99.90
24152;DHT22;12311;50.866;4.332;2024-02-26T09:52:04;6.30;99.90
24152;DHT22;12311;50.866;4.332;2024-02-26T09:54:31;6.30;99.90
24152;DHT22;12311;50.866;4.332;2024-02-26T09:57:00;6.30;99.90
24152;DHT22;12311;50.866;4.332;2024-02-26T09:59:29;6.30;99.90
24152;DHT22;12311;50.866;4.332;2024-02-26T10:01:58;6.20;99.90
24152;DHT22;12311;50.866;4.332;2024-02-26T10:04:24;6.30;99.90
24152;DHT22;12311;50.866;4.332;2024-02-26T10:06:51;6.30;99.90
24152;DHT22;12311;50.866;4.332;2024-02-26T10:09:18;6.30;99.90
24152;DHT22;12311;50.866;4.332;2024-02-26T10:11:45;6.20;99.90
24152;DHT22;12311;50.866;4.332;2024-02-26T10:14:14;6.20;99.90
24152;DHT22;12311;50.866;4.332;2024-02-26T10:16:41;6.30;99.90
24152;DHT22;12311;50.866;4.332;2024-02-26T10:19:07;6.30;99.90
24152;DHT22;12311;50.866;4.332;2024-02-26T10:21:32;6.30;99.90
24152;DHT22;12311;50.866;4.332;2024-02-26T10:23:58;6.30;99.90
24152;DHT22;12311;50.866;4.332;2024-02-26T10:26:24;6.40;99.90
24152;DHT22;12311;50.866;4.332;2024-02-26T10:28:49;6.40;99.90
24152;DHT22;12311;50.866;4.332;2024-02-26T10:31:15;6.40;99.90
24152;DHT22;12311;50.866;4.332;2024-02-26T10:33:43;6.40;99.90
24152;DHT22;12311;50.866;4.332;2024-02-26T10:36:09;6.40;99.90
24152;DHT22;12311;50.866;4.332;2024-02-26T10:38:36;6.40;99.90
24152;DHT22;12311;50.866;4.332;2024-02-26T10:41:03;6.30;99.90
24152;DHT22;12311;50.866;4.332;2024-02-26T10:43:29;6.30;99.90
24152;DHT22;12311;50.866;4.332;2024-02-26T10:45:58;6.30;99.90
24152;DHT22;12311;50.866;4.332;2024-02-26T10:48:24;6.30;99.90
24152;DHT22;12311;50.866;4.332;2024-02-26T10:50:50;6.30;99.90
24152;DHT22;12311;50.866;4.332;2024-02-26T10:53:23;6.40;99.90
24152;DHT22;12311;50.866;4.332;2024-02-26T10:56:04;6.50;99.90
24152;DHT22;12311;50.866;4.332;2024-02-26T10:58:33;6.40;99.90
24152;DHT22;12311;50.866;4.332;2024-02-26T11:01:00;6.40;99.90
24152;DHT22;12311;50.866;4.332;2024-02-26T11:03:26;6.50;99.90
24152;DHT22;12311;50.866;4.332;2024-02-26T11:05:53;6.40;99.90
24152;DHT22;12311;50.866;4.332;2024-02-26T11:08:20;6.40;99.90
24152;DHT22;12311;50.866;4.332;2024-02-26T11:10:52;6.40;99.90
24152;DHT22;12311;50.866;4.332;2024-02-26T11:13:19;6.50;99.90
24152;DHT22;12311;50.866;4.332;2024-02-26T11:15:48;6.50;99.90
24152;DHT22;12311;50.866;4.332;2024-02-26T11:18:15;6.40;99.90
24152;DHT22;12311;50.866;4.332;2024-02-26T11:20:44;6.20;99.90
24152;DHT22;12311;50.866;4.332;2024-02-26T11:23:11;6.20;99.90
24152;DHT22;12311;50.866;4.332;2024-02-26T11:25:37;6.20;99.90
24152;DHT22;12311;50.866;4.332;2024-02-26T11:28:07;6.10;99.90
24152;DHT22;12311;50.866;4.332;2024-02-26T11:30:37;6.10;99.90
24152;DHT22;12311;50.866;4.332;2024-02-26T11:33:07;6.00;99.90
24152;DHT22;12311;50.866;4.332;2024-02-26T11:35:36;6.00;99.90
24152;DHT22;12311;50.866;4.332;2024-02-26T11:38:01;6.00;99.90
24152;DHT22;12311;50.866;4.332;2024-02-26T11:40:28;5.90;99.90
24152;DHT22;12311;50.866;4.332;2024-02-26T11:42:54;6.00;99.90
24152;DHT22;12311;50.866;4.332;2024-02-26T11:48:05;5.90;99.90
24152;DHT22;12311;50.866;4.332;2024-02-26T11:50:39;5.90;99.90
24152;DHT22;12311;50.866;4.332;2024-02-26T11:53:27;5.80;99.90
24152;DHT22;12311;50.866;4.332;2024-02-26T11:58:44;6.00;99.90
24152;DHT22;12311;50.866;4.332;2024-02-26T12:01:37;6.00;99.90
24152;DHT22;12311;50.866;4.332;2024-02-26T12:04:32;6.00;99.90
24152;DHT22;12311;50.866;4.332;2024-02-26T12:07:00;6.00;99.90
24152;DHT22;12311;50.866;4.332;2024-02-26T12:09:41;6.10;99.90
24152;DHT22;12311;50.866;4.332;2024-02-26T12:12:13;6.10;99.90
24152;DHT22;12311;50.866;4.332;2024-02-26T12:14:53;6.20;99.90
24152;DHT22;12311;50.866;4.332;2024-02-26T12:17:28;6.10;99.90
24152;DHT22;12311;50.866;4.332;2024-02-26T12:19:53;6.20;99.90
24152;DHT22;12311;50.866;4.332;2024-02-26T12:22:20;6.20;99.90
24152;DHT22;12311;50.866;4.332;2024-02-26T12:24:46;6.10;99.90
24152;DHT22;12311;50.866;4.332;2024-02-26T12:27:12;6.10;99.90
24152;DHT22;12311;50.866;4.332;2024-02-26T12:29:37;6.20;99.90
24152;DHT22;12311;50.866;4.332;2024-02-26T12:32:04;6.30;99.90
24152;DHT22;12311;50.866;4.332;2024-02-26T12:34:31;6.40;99.90
24152;DHT22;12311;50.866;4.332;2024-02-26T12:36:57;6.30;99.90
24152;DHT22;12311;50.866;4.332;2024-02-26T12:39:23;6.30;99.90
24152;DHT22;12311;50.866;4.332;2024-02-26T12:41:49;6.20;99.90
24152;DHT22;12311;50.866;4.332;2024-02-26T12:44:18;6.20;99.90
24152;DHT22;12311;50.866;4.332;2024-02-26T12:46:44;6.20;99.90
24152;DHT22;12311;50.866;4.332;2024-02-26T12:49:15;6.20;99.90
24152;DHT22;12311;50.866;4.332;2024-02-26T12:51:44;6.20;99.90
24152;DHT22;12311;50.866;4.332;2024-02-26T12:54:10;6.20;99.90
24152;DHT22;12311;50.866;4.332;2024-02-26T12:56:36;6.20;99.90
24152;DHT22;12311;50.866;4.332;2024-02-26T12:59:02;6.20;99.90
24152;DHT22;12311;50.866;4.332;2024-02-26T13:01:29;6.20;99.90
24152;DHT22;12311;50.866;4.332;2024-02-26T13:03:56;6.10;99.90
24152;DHT22;12311;50.866;4.332;2024-02-26T13:06:22;6.10;99.90
24152;DHT22;12311;50.866;4.332;2024-02-26T13:08:48;6.10;99.90
24152;DHT22;12311;50.866;4.332;2024-02-26T13:11:14;6.10;99.90
24152;DHT22;12311;50.866;4.332;2024-02-26T13:13:39;6.10;99.90
24152;DHT22;12311;50.866;4.332;2024-02-26T13:16:07;6.10;99.90
24152;DHT22;12311;50.866;4.332;2024-02-26T13:18:34;6.10;99.90
24152;DHT22;12311;50.866;4.332;2024-02-26T13:21:10;6.10;99.90
24152;DHT22;12311;50.866;4.332;2024-02-26T13:23:38;6.10;99.90
24152;DHT22;12311;50.866;4.332;2024-02-26T13:26:04;6.10;99.90
24152;DHT22;12311;50.866;4.332;2024-02-26T13:28:30;6.10;99.90
24152;DHT22;12311;50.866;4.332;2024-02-26T13:30:57;6.10;99.90
24152;DHT22;12311;50.866;4.332;2024-02-26T13:33:27;6.00;99.90
24152;DHT22;12311;50.866;4.332;2024-02-26T13:35:57;6.00;99.90
24152;DHT22;12311;50.866;4.332;2024-02-26T13:38:23;5.90;99.90
24152;DHT22;12311;50.866;4.332;2024-02-26T13:40:50;5.80;99.90
24152;DHT22;12311;50.866;4.332;2024-02-26T13:43:15;5.90;99.90
24152;DHT22;12311;50.866;4.332;2024-02-26T13:45:41;5.90;99.90
24152;DHT22;12311;50.866;4.332;2024-02-26T13:48:08;5.90;99.90
24152;DHT22;12311;50.866;4.332;2024-02-26T13:50:40;5.90;99.90
24152;DHT22;12311;50.866;4.332;2024-02-26T13:53:06;5.90;99.90
24152;DHT22;12311;50.866;4.332;2024-02-26T13:55:32;5.90;99.90
24152;DHT22;12311;50.866;4.332;2024-02-26T13:57:59;5.90;99.90
24152;DHT22;12311;50.866;4.332;2024-02-26T14:00:27;5.90;99.90
24152;DHT22;12311;50.866;4.332;2024-02-26T14:02:54;5.90;99.90
24152;DHT22;12311;50.866;4.332;2024-02-26T14:05:20;5.90;99.90
24152;DHT22;12311;50.866;4.332;2024-02-26T14:07:45;6.00;99.90
24152;DHT22;12311;50.866;4.332;2024-02-26T14:10:12;5.90;99.90
24152;DHT22;12311;50.866;4.332;2024-02-26T14:12:38;6.00;99.90
24152;DHT22;12311;50.866;4.332;2024-02-26T14:15:07;6.00;99.90
24152;DHT22;12311;50.866;4.332;2024-02-26T14:17:33;6.00;99.90
24152;DHT22;12311;50.866;4.332;2024-02-26T14:19:59;6.10;99.90
24152;DHT22;12311;50.866;4.332;2024-02-26T14:22:25;6.10;99.90
24152;DHT22;12311;50.866;4.332;2024-02-26T14:24:52;6.20;99.90
24152;DHT22;12311;50.866;4.332;2024-02-26T14:27:18;6.20;99.90
24152;DHT22;12311;50.866;4.332;2024-02-26T14:29:47;6.10;99.90
24152;DHT22;12311;50.866;4.332;2024-02-26T14:32:13;6.10;99.90
24152;DHT22;12311;50.866;4.332;2024-02-26T14:34:39;6.20;99.90
24152;DHT22;12311;50.866;4.332;2024-02-26T14:37:05;6.20;99.90
24152;DHT22;12311;50.866;4.332;2024-02-26T14:39:34;6.20;99.90
24152;DHT22;12311;50.866;4.332;2024-02-26T14:42:00;6.20;99.90
24152;DHT22;12311;50.866;4.332;2024-02-26T14:44:26;6.20;99.90
24152;DHT22;12311;50.866;4.332;2024-02-26T14:46:52;6.10;99.90
24152;DHT22;12311;50.866;4.332;2024-02-26T14:49:17;6.20;99.90
24152;DHT22;12311;50.866;4.332;2024-02-26T14:51:46;6.20;99.90
24152;DHT22;12311;50.866;4.332;2024-02-26T14:54:12;6.20;99.90
24152;DHT22;12311;50.866;4.332;2024-02-26T14:56:38;6.20;99.90
24152;DHT22;12311;50.866;4.332;2024-02-26T14:59:04;6.30;99.90
24152;DHT22;12311;50.866;4.332;2024-02-26T15:01:30;6.30;99.90
24152;DHT22;12311;50.866;4.332;2024-02-26T15:03:56;6.30;99.90
24152;DHT22;12311;50.866;4.332;2024-02-26T15:06:23;6.30;99.90
24152;DHT22;12311;50.866;4.332;2024-02-26T15:08:49;6.40;99.90
24152;DHT22;12311;50.866;4.332;2024-02-26T15:11:14;6.40;99.90
24152;DHT22;12311;50.866;4.332;2024-02-26T15:13:40;6.30;99.90
24152;DHT22;12311;50.866;4.332;2024-02-26T15:16:06;6.30;99.90
24152;DHT22;12311;50.866;4.332;2024-02-26T15:18:32;6.20;99.90
24152;DHT22;12311;50.866;4.332;2024-02-26T15:20:58;6.20;99.90
24152;DHT22;12311;50.866;4.332;2024-02-26T15:23:23;6.20;99.90
24152;DHT22;12311;50.866;4.332;2024-02-26T15:25:49;6.20;99.90
24152;DHT22;12311;50.866;4.332;2024-02-26T15:28:15;6.20;99.90
24152;DHT22;12311;50.866;4.332;2024-02-26T15:30:41;6.10;99.90
24152;DHT22;12311;50.866;4.332;2024-02-26T15:33:07;6.20;99.90
24152;DHT22;12311;50.866;4.332;2024-02-26T15:35:34;6.20;99.90
24152;DHT22;12311;50.866;4.332;2024-02-26T15:38:00;6.20;99.90
24152;DHT22;12311;50.866;4.332;2024-02-26T15:40:25;6.10;99.90
24152;DHT22;12311;50.866;4.332;2024-02-26T15:42:51;6.10;99.90
24152;DHT22;12311;50.866;4.332;2024-02-26T15:45:17;6.10;99.90
24152;DHT22;12311;50.866;4.332;2024-02-26T15:47:43;6.10;99.90